Time;durP1;ratioP1;P1;durP2;ratioP2;P2;SDS_P1;SDS_P2;PMS_P1;PMS_P2;Temp;Humidity;BMP_temperature;BMP_pressure;BME280_temperature;BME280_humidity;BME280_pressure;Samples;Min_cycle;Max_cycle;Signal;HPM_P1;HPM_P2
2022/03/08 00:02:24;;;;;;;20.63;10.73;;;;;;;-1.30;73.22;99421.38;5053745;28;20059;-79
2022/03/08 00:04:51;;;;;;;19.98;9.77;;;;;;;-1.33;72.93;99425.50;5064584;28;20063;-77
2022/03/08 00:07:18;;;;;;;19.13;9.63;;;;;;;-1.29;73.19;99435.03;5065057;28;20139;-78
2022/03/08 00:09:45;;;;;;;18.98;10.50;;;;;;;-1.32;73.39;99428.09;5069638;28;20076;-77
2022/03/08 00:12:12;;;;;;;24.17;10.38;;;;;;;-1.39;73.02;99410.72;5057697;28;20496;-78
2022/03/08 00:14:39;;;;;;;20.42;9.40;;;;;;;-1.35;73.33;99425.41;5052927;28;20061;-79
2022/03/08 00:17:06;;;;;;;20.48;9.82;;;;;;;-1.33;72.90;99435.75;5053052;28;20489;-79
2022/03/08 00:19:33;;;;;;;16.98;9.20;;;;;;;-1.43;73.46;99437.00;5053096;28;20126;-78
2022/03/08 00:22:00;;;;;;;18.85;8.85;;;;;;;-1.52;74.00;99437.47;5052908;28;20049;-78
2022/03/08 00:24:26;;;;;;;21.27;9.90;;;;;;;-1.56;73.69;99424.47;5052970;28;20049;-78
2022/03/08 00:26:53;;;;;;;17.20;9.05;;;;;;;-1.52;73.69;99434.91;5052129;28;20049;-76
2022/03/08 00:29:20;;;;;;;20.85;9.73;;;;;;;-1.72;73.63;99395.63;5053050;28;20052;-78
2022/03/08 00:31:48;;;;;;;17.17;8.82;;;;;;;-1.62;74.10;99419.94;5052727;28;20053;-79
2022/03/08 00:34:14;;;;;;;19.73;9.15;;;;;;;-1.59;74.20;99440.59;5052816;28;20057;-78
2022/03/08 00:36:42;;;;;;;18.98;9.70;;;;;;;-1.61;74.03;99434.53;5052658;28;20505;-78
2022/03/08 00:39:09;;;;;;;17.05;8.38;;;;;;;-1.55;73.76;99450.16;5051395;28;20049;-77
2022/03/08 00:41:37;;;;;;;15.18;7.82;;;;;;;-1.54;74.03;99449.34;5051472;28;20502;-76
2022/03/08 00:44:07;;;;;;;13.65;7.78;;;;;;;-1.54;73.71;99459.59;5052267;28;20065;-78
2022/03/08 00:46:34;;;;;;;17.40;7.78;;;;;;;-1.55;73.93;99447.59;5051173;28;20467;-78
2022/03/08 00:49:01;;;;;;;15.75;7.38;;;;;;;-1.54;74.30;99440.78;5052283;28;20106;-78
2022/03/08 00:51:29;;;;;;;14.63;7.43;;;;;;;-1.45;73.58;99460.00;5052333;28;20528;-78
2022/03/08 00:53:56;;;;;;;17.35;7.60;;;;;;;-1.41;73.54;99452.47;5052414;28;20107;-78
2022/03/08 00:56:22;;;;;;;15.90;7.70;;;;;;;-1.32;73.60;99453.72;5052841;28;20053;-78
2022/03/08 00:58:49;;;;;;;12.32;6.95;;;;;;;-1.27;73.38;99453.94;5052478;28;20048;-77
2022/03/08 01:01:16;;;;;;;14.07;7.47;;;;;;;-1.30;73.32;99454.69;5052606;28;20060;-77
2022/03/08 01:03:46;;;;;;;14.82;7.57;;;;;;;-1.12;73.34;99457.19;5051191;28;20114;-77
2022/03/08 01:06:13;;;;;;;16.17;7.18;;;;;;;-1.19;72.91;99426.94;5052702;28;20057;-80
2022/03/08 01:08:40;;;;;;;12.18;6.05;;;;;;;-0.92;72.42;99480.25;5046249;28;20049;-80
2022/03/08 01:11:07;;;;;;;11.98;6.82;;;;;;;-0.87;72.65;99471.03;5033402;28;20064;-78
2022/03/08 01:13:34;;;;;;;12.63;5.88;;;;;;;-0.90;72.13;99464.09;5032458;28;20091;-80
2022/03/08 01:16:01;;;;;;;14.93;5.95;;;;;;;-1.00;72.67;99453.38;5032867;28;20053;-80
2022/03/08 01:18:29;;;;;;;12.95;6.60;;;;;;;-0.97;72.44;99467.19;5032924;28;20045;-80
2022/03/08 01:20:57;;;;;;;13.27;6.57;;;;;;;-0.75;72.37;99475.81;5032511;28;20103;-79
2022/03/08 01:23:25;;;;;;;10.77;6.13;;;;;;;-0.69;72.05;99476.97;5033115;28;20057;-79
2022/03/08 01:25:51;;;;;;;11.57;6.25;;;;;;;-0.79;72.03;99472.25;5032706;28;20049;-77
2022/03/08 01:28:21;;;;;;;13.63;6.00;;;;;;;-0.79;72.03;99481.66;5031193;28;20045;-77
2022/03/08 01:30:49;;;;;;;8.65;5.15;;;;;;;-0.80;72.07;99474.75;5032108;28;20066;-76
2022/03/08 01:33:16;;;;;;;13.77;6.63;;;;;;;-0.73;72.09;99482.78;5033248;28;20057;-76
2022/03/08 01:35:43;;;;;;;12.10;6.40;;;;;;;-0.78;72.04;99447.47;5034442;28;20061;-76
2022/03/08 01:38:11;;;;;;;11.38;5.88;;;;;;;-0.67;71.70;99477.00;5034373;28;20057;-76
2022/03/08 01:40:38;;;;;;;12.60;6.80;;;;;;;-0.80;71.65;99475.63;5034685;28;20053;-76
2022/03/08 01:43:05;;;;;;;11.23;5.85;;;;;;;-0.69;71.59;99489.78;5035939;28;20064;-76
2022/03/08 01:45:34;;;;;;;11.00;6.10;;;;;;;-0.79;72.14;99489.34;5036727;28;20060;-76
2022/03/08 01:48:01;;;;;;;11.70;5.90;;;;;;;-0.85;72.33;99492.50;5036367;28;20062;-77
2022/03/08 01:50:31;;;;;;;10.02;5.28;;;;;;;-0.76;72.24;99486.88;5034526;28;20045;-76
2022/03/08 01:52:58;;;;;;;9.27;5.03;;;;;;;-0.68;71.79;99486.41;5035454;28;20061;-76
2022/03/08 01:55:25;;;;;;;11.35;5.10;;;;;;;-0.81;71.87;99475.56;5035526;28;20057;-78
2022/03/08 01:57:52;;;;;;;10.80;5.32;;;;;;;-0.78;72.04;99484.25;5035524;28;20493;-77
2022/03/08 02:00:24;;;;;;;9.75;4.68;;;;;;;-0.86;72.41;99481.38;5035835;28;20049;-76
2022/03/08 02:02:51;;;;;;;10.20;4.90;;;;;;;-1.04;72.65;99457.50;5035477;28;20524;-77
2022/03/08 02:05:22;;;;;;;9.55;4.72;;;;;;;-0.90;72.90;99491.44;5035948;28;20053;-77
2022/03/08 02:07:49;;;;;;;8.48;5.07;;;;;;;-1.10;72.51;99457.22;5035710;28;20057;-77
2022/03/08 02:10:16;;;;;;;10.05;4.93;;;;;;;-0.90;73.06;99494.88;5035239;28;20057;-78
2022/03/08 02:12:43;;;;;;;10.23;5.45;;;;;;;-0.93;72.66;99497.28;5035596;28;20053;-76
2022/03/08 02:15:22;;;;;;;8.90;4.93;;;;;;;-0.89;73.24;99498.31;5035387;28;20084;-77
2022/03/08 02:18:05;;;;;;;8.75;5.35;;;;;;;-0.76;72.50;99500.59;5035956;28;20057;-79
2022/03/08 02:21:08;;;;;;;9.88;5.30;;;;;;;-0.86;72.71;99508.69;5035510;28;20595;-76
2022/03/08 02:23:35;;;;;;;9.23;5.20;;;;;;;-0.89;72.42;99506.88;5035055;28;20192;-78
2022/03/08 02:26:52;;;;;;;8.68;4.93;;;;;;;-0.92;73.00;99505.88;5034941;28;20053;-78
2022/03/08 02:29:19;;;;;;;8.00;4.90;;;;;;;-1.02;73.10;99517.41;5034931;28;20067;-77
2022/03/08 02:31:49;;;;;;;9.88;5.90;;;;;;;-1.11;72.89;99509.31;5034657;28;20138;-78
2022/03/08 02:34:16;;;;;;;8.07;5.17;;;;;;;-1.19;72.76;99515.78;5065750;28;20045;-77
2022/03/08 02:37:15;;;;;;;8.85;4.82;;;;;;;-1.26;73.29;99509.53;5034877;28;20056;-78
2022/03/08 02:39:44;;;;;;;7.45;4.70;;;;;;;-1.33;73.35;99510.94;5033546;28;20057;-77
2022/03/08 02:42:12;;;;;;;9.63;5.37;;;;;;;-1.37;73.78;99520.97;5034661;28;20071;-78
2022/03/08 02:44:39;;;;;;;11.63;5.53;;;;;;;-1.38;73.44;99527.75;5034908;28;20140;-78
2022/03/08 02:47:06;;;;;;;8.68;5.20;;;;;;;-1.36;73.44;99535.53;5034767;28;20088;-79
2022/03/08 02:49:34;;;;;;;9.40;5.18;;;;;;;-1.31;73.67;99531.50;5034556;28;20064;-78
2022/03/08 02:52:00;;;;;;;12.55;5.75;;;;;;;-1.24;73.32;99538.66;5034088;28;20465;-78
2022/03/08 02:54:27;;;;;;;8.05;4.97;;;;;;;-1.33;73.42;99528.00;5034742;28;20060;-77
2022/03/08 02:56:54;;;;;;;8.80;5.20;;;;;;;-1.32;72.98;99542.56;5034424;28;20067;-77
2022/03/08 02:59:22;;;;;;;8.35;4.82;;;;;;;-1.31;73.08;99546.88;5035071;28;20053;-77
2022/03/08 03:01:50;;;;;;;10.70;4.80;;;;;;;-1.33;73.26;99544.25;5034371;28;20083;-77
2022/03/08 03:04:17;;;;;;;8.65;4.82;;;;;;;-1.30;72.99;99556.31;5034610;28;20053;-77
2022/03/08 03:06:44;;;;;;;6.85;4.30;;;;;;;-1.33;72.65;99569.00;5034330;28;20049;-78
2022/03/08 03:09:11;;;;;;;8.15;4.80;;;;;;;-1.55;72.45;99537.28;5034170;28;20143;-78
2022/03/08 03:11:38;;;;;;;8.60;4.70;;;;;;;-1.41;72.86;99565.22;5034363;28;20049;-77
2022/03/08 03:14:05;;;;;;;10.00;5.20;;;;;;;-1.36;72.88;99584.22;5034171;28;20060;-77
2022/03/08 03:16:32;;;;;;;8.32;5.00;;;;;;;-1.47;72.22;99581.16;5034468;28;20585;-79
2022/03/08 03:18:59;;;;;;;8.73;4.60;;;;;;;-1.46;72.38;99586.38;5034038;28;20429;-78
2022/03/08 03:21:26;;;;;;;8.10;4.38;;;;;;;-1.66;72.28;99554.69;5034191;28;20464;-78
2022/03/08 03:23:53;;;;;;;10.45;5.07;;;;;;;-1.52;72.58;99572.41;5034346;28;20060;-77
2022/03/08 03:26:20;;;;;;;9.50;5.05;;;;;;;-1.42;71.73;99566.00;5034272;28;20149;-78
2022/03/08 03:28:47;;;;;;;9.23;4.78;;;;;;;-1.31;72.06;99586.19;5034258;28;20125;-78
2022/03/08 03:31:13;;;;;;;5.93;3.47;;;;;;;-1.48;71.61;99610.16;5033941;28;20525;-78
2022/03/08 03:33:41;;;;;;;9.05;4.85;;;;;;;-1.53;72.00;99597.09;5034360;28;20112;-78
2022/03/08 03:36:08;;;;;;;6.85;4.78;;;;;;;-1.51;71.79;99587.81;5034295;28;20053;-78
2022/03/08 03:38:35;;;;;;;8.20;4.95;;;;;;;-1.47;71.47;99601.66;5036247;28;20584;-78
2022/03/08 03:41:02;;;;;;;7.60;4.70;;;;;;;-1.55;72.02;99585.94;5054870;28;20053;-78
2022/03/08 03:43:29;;;;;;;8.48;4.57;;;;;;;-1.60;71.63;99602.75;5054605;28;20076;-77
2022/03/08 03:45:56;;;;;;;7.75;5.13;;;;;;;-1.58;72.03;99603.72;5054318;28;20143;-77
2022/03/08 03:48:23;;;;;;;9.25;4.72;;;;;;;-1.56;71.62;99598.66;5056818;28;20053;-79
2022/03/08 03:50:50;;;;;;;8.57;5.20;;;;;;;-1.65;71.43;99605.09;5061583;28;20064;-77
2022/03/08 03:53:17;;;;;;;8.15;4.72;;;;;;;-1.67;71.58;99596.47;5067005;28;20514;-77
2022/03/08 03:55:44;;;;;;;7.80;4.30;;;;;;;-1.89;71.59;99591.13;5068151;28;20045;-78
2022/03/08 03:58:11;;;;;;;9.77;4.78;;;;;;;-1.78;71.69;99600.22;5053612;28;20075;-78
2022/03/08 04:00:38;;;;;;;7.40;3.33;;;;;;;-1.74;71.53;99621.69;5052623;28;20081;-79
2022/03/08 04:03:05;;;;;;;8.77;4.57;;;;;;;-1.83;71.64;99616.16;5053108;28;20478;-78
2022/03/08 04:05:33;;;;;;;8.98;5.25;;;;;;;-1.84;71.92;99625.50;5051555;28;20139;-78
2022/03/08 04:08:00;;;;;;;7.47;4.85;;;;;;;-1.87;71.49;99610.00;5037494;28;20081;-77
2022/03/08 04:10:27;;;;;;;7.22;4.43;;;;;;;-1.88;71.70;99604.00;5045772;28;20073;-78
2022/03/08 04:12:54;;;;;;;8.18;4.55;;;;;;;-1.92;71.51;99620.00;5053306;28;20049;-79
2022/03/08 04:15:21;;;;;;;8.10;4.90;;;;;;;-2.00;71.76;99597.38;5053349;28;20496;-78
2022/03/08 04:17:48;;;;;;;8.40;5.18;;;;;;;-1.78;71.57;99628.38;5053765;28;20048;-78
2022/03/08 04:20:14;;;;;;;7.25;4.63;;;;;;;-1.75;71.66;99640.44;5052942;28;20049;-78
2022/03/08 04:22:41;;;;;;;7.28;4.53;;;;;;;-1.78;71.64;99638.63;5053245;28;20532;-77
2022/03/08 04:25:09;;;;;;;8.77;4.70;;;;;;;-1.78;71.44;99645.44;5053070;28;20048;-78
2022/03/08 04:27:37;;;;;;;9.55;5.00;;;;;;;-1.89;71.33;99640.66;5052417;28;20052;-78
2022/03/08 04:30:07;;;;;;;8.45;4.63;;;;;;;-1.76;71.84;99651.50;5051269;28;20057;-77
2022/03/08 04:32:34;;;;;;;6.30;4.50;;;;;;;-1.72;71.32;99656.84;5052686;28;20060;-77
2022/03/08 04:35:00;;;;;;;7.78;4.60;;;;;;;-1.79;71.07;99652.22;5052616;28;20080;-77
2022/03/08 04:37:28;;;;;;;8.07;4.63;;;;;;;-1.78;71.39;99641.19;5052800;28;20059;-78
2022/03/08 04:39:55;;;;;;;6.57;4.03;;;;;;;-1.78;70.82;99645.44;5051734;28;20057;-79
2022/03/08 04:42:22;;;;;;;8.02;4.32;;;;;;;-1.71;71.02;99650.91;5052774;28;20079;-77
2022/03/08 04:44:49;;;;;;;8.68;4.47;;;;;;;-1.85;70.92;99651.91;5053137;28;20045;-77
2022/03/08 04:47:16;;;;;;;5.53;3.65;;;;;;;-2.00;70.75;99628.09;5052788;28;20136;-78
2022/03/08 04:49:43;;;;;;;6.60;4.47;;;;;;;-1.76;71.14;99666.88;5052804;28;20060;-78
2022/03/08 04:52:10;;;;;;;8.02;4.60;;;;;;;-1.76;70.36;99666.88;5052848;28;20072;-78
2022/03/08 04:54:37;;;;;;;6.65;3.85;;;;;;;-1.79;70.79;99665.00;5053059;28;20059;-78
2022/03/08 04:57:05;;;;;;;7.47;4.28;;;;;;;-1.82;70.63;99681.94;5053105;28;20044;-78
2022/03/08 04:59:32;;;;;;;7.53;4.20;;;;;;;-1.80;70.72;99686.31;5053317;28;20103;-79
2022/03/08 05:01:59;;;;;;;7.60;4.65;;;;;;;-1.77;70.40;99671.09;5053648;28;20052;-78
2022/03/08 05:04:26;;;;;;;8.65;4.78;;;;;;;-1.81;70.92;99691.34;5053136;28;20426;-78
2022/03/08 05:06:53;;;;;;;8.15;4.72;;;;;;;-1.77;70.28;99694.13;5053094;28;20513;-78
2022/03/08 05:09:19;;;;;;;7.15;3.97;;;;;;;-1.72;70.41;99692.72;5053003;28;20567;-77
2022/03/08 05:11:46;;;;;;;7.20;4.07;;;;;;;-1.78;70.07;99689.84;5053265;28;20049;-78
2022/03/08 05:14:13;;;;;;;7.35;4.20;;;;;;;-1.80;70.36;99701.69;5058144;28;20069;-77
2022/03/08 05:16:40;;;;;;;7.40;4.32;;;;;;;-1.78;70.02;99699.22;5061263;28;20053;-78
2022/03/08 05:19:07;;;;;;;6.65;4.20;;;;;;;-1.88;69.76;99713.22;5058141;28;20060;-79
2022/03/08 05:21:34;;;;;;;4.90;3.70;;;;;;;-1.99;69.73;99720.34;5056789;28;20059;-79
2022/03/08 05:24:01;;;;;;;8.75;4.75;;;;;;;-2.02;69.66;99724.44;5056296;28;20057;-78
2022/03/08 05:26:28;;;;;;;8.70;4.10;;;;;;;-2.18;69.50;99699.75;5056477;28;20059;-78
2022/03/08 05:28:55;;;;;;;6.60;4.00;;;;;;;-2.00;69.08;99725.38;5056056;28;20506;-77
2022/03/08 05:31:22;;;;;;;5.88;3.72;;;;;;;-2.06;69.24;99714.06;5055881;28;20049;-78
2022/03/08 05:33:49;;;;;;;8.98;4.65;;;;;;;-2.11;69.00;99704.38;5056176;28;20497;-77
2022/03/08 05:36:15;;;;;;;9.13;4.88;;;;;;;-2.16;68.67;99704.13;5056126;28;20513;-79
2022/03/08 05:38:42;;;;;;;7.55;5.30;;;;;;;-1.86;68.47;99727.84;5055015;28;20049;-79
2022/03/08 05:41:12;;;;;;;8.43;4.93;;;;;;;-2.05;68.71;99699.56;5055894;28;20057;-78
2022/03/08 05:43:39;;;;;;;8.23;4.45;;;;;;;-1.84;68.51;99745.00;5056577;28;20057;-78
2022/03/08 05:46:06;;;;;;;6.80;4.03;;;;;;;-1.96;68.74;99735.00;5055987;28;20053;-79
2022/03/08 05:48:33;;;;;;;5.25;3.70;;;;;;;-1.94;68.69;99744.50;5056789;28;20455;-78
2022/03/08 05:51:00;;;;;;;11.18;4.78;;;;;;;-2.03;68.37;99750.84;5056637;28;20057;-79
2022/03/08 05:53:26;;;;;;;10.10;4.40;;;;;;;-2.09;68.71;99764.19;5056233;28;20102;-78
2022/03/08 05:55:54;;;;;;;9.07;4.88;;;;;;;-2.11;68.65;99755.56;5056290;28;20053;-79
2022/03/08 05:58:25;;;;;;;10.80;4.72;;;;;;;-2.01;68.84;99750.13;5056438;28;20044;-78
2022/03/08 06:00:52;;;;;;;9.25;4.35;;;;;;;-2.08;68.46;99723.31;5045766;28;20053;-78
2022/03/08 06:03:19;;;;;;;11.00;4.60;;;;;;;-1.93;68.47;99769.31;5036098;28;20057;-78
2022/03/08 06:05:46;;;;;;;8.23;4.80;;;;;;;-1.86;68.08;99771.38;5036436;28;20072;-77
2022/03/08 06:08:14;;;;;;;8.63;4.38;;;;;;;-1.87;68.20;99761.97;5045848;28;20045;-78
2022/03/08 06:10:42;;;;;;;6.10;3.55;;;;;;;-1.86;67.37;99778.19;5056106;28;20509;-77
2022/03/08 06:13:09;;;;;;;8.95;4.88;;;;;;;-1.93;67.47;99773.56;5055737;28;20045;-80
2022/03/08 06:15:36;;;;;;;7.15;4.38;;;;;;;-1.80;67.44;99782.75;5055535;28;20175;-78
2022/03/08 06:18:04;;;;;;;6.82;4.22;;;;;;;-1.86;66.19;99814.91;5038023;28;20057;-78
2022/03/08 06:20:31;;;;;;;6.72;4.40;;;;;;;-2.21;66.58;99792.59;5056251;28;20059;-78
2022/03/08 06:22:58;;;;;;;6.97;3.92;;;;;;;-2.25;66.80;99800.91;5053837;28;20095;-78
2022/03/08 06:25:26;;;;;;;10.20;4.80;;;;;;;-2.29;66.53;99812.66;5054005;28;20080;-78
2022/03/08 06:27:53;;;;;;;7.15;3.55;;;;;;;-2.30;65.97;99802.34;5054993;28;20056;-77
2022/03/08 06:30:20;;;;;;;7.47;4.18;;;;;;;-2.38;66.42;99798.50;5054745;28;20202;-79
2022/03/08 06:32:47;;;;;;;6.68;3.78;;;;;;;-2.36;65.77;99784.13;5054794;28;20049;-78
2022/03/08 06:35:14;;;;;;;8.50;4.07;;;;;;;-2.28;65.54;99810.97;5054684;28;20091;-80
2022/03/08 06:37:41;;;;;;;7.80;3.90;;;;;;;-2.45;65.87;99793.81;5055063;28;20455;-80
2022/03/08 06:40:09;;;;;;;7.25;4.15;;;;;;;-2.33;66.38;99822.66;5054640;28;20053;-77
2022/03/08 06:42:37;;;;;;;7.28;3.85;;;;;;;-2.38;66.16;99798.50;5055060;28;20095;-77
2022/03/08 06:45:07;;;;;;;7.88;4.43;;;;;;;-2.26;66.08;99814.50;5053548;28;20060;-81
2022/03/08 06:47:34;;;;;;;8.70;4.25;;;;;;;-2.28;65.77;99824.66;5055107;28;20148;-79
2022/03/08 06:50:01;;;;;;;7.28;3.78;;;;;;;-2.34;65.50;99826.88;5054497;28;20052;-78
2022/03/08 06:52:28;;;;;;;6.45;3.72;;;;;;;-2.35;65.77;99819.13;5054398;28;20092;-76
2022/03/08 06:54:55;;;;;;;8.70;4.55;;;;;;;-2.39;65.61;99806.97;5057096;28;20117;-77
2022/03/08 06:57:22;;;;;;;6.18;3.75;;;;;;;-2.29;65.63;99827.13;5055443;28;20118;-81
2022/03/08 06:59:53;;;;;;;6.93;3.97;;;;;;;-2.20;65.16;99809.69;5054489;28;20040;-81
2022/03/08 07:02:20;;;;;;;7.72;4.20;;;;;;;-2.11;64.68;99837.47;5053070;28;20052;-79
2022/03/08 07:04:48;;;;;;;6.30;3.35;;;;;;;-2.25;64.83;99840.97;5055000;28;20079;-80
2022/03/08 07:07:15;;;;;;;5.55;4.00;;;;;;;-2.38;65.11;99837.75;5021340;28;20147;-79
2022/03/08 07:09:44;;;;;;;7.85;3.72;;;;;;;-2.38;64.78;99839.44;5055520;28;20052;-80
2022/03/08 07:12:25;;;;;;;6.75;3.70;;;;;;;-2.60;64.24;99829.69;5056204;28;20487;-80
2022/03/08 07:14:52;;;;;;;6.20;3.90;;;;;;;-2.81;64.44;99791.91;5055402;28;20061;-78
2022/03/08 07:17:19;;;;;;;4.95;3.30;;;;;;;-2.58;64.09;99840.88;5054907;28;20060;-79
2022/03/08 07:20:09;;;;;;;5.95;3.35;;;;;;;-2.63;64.36;99847.44;5055330;28;20041;-81
2022/03/08 07:22:57;;;;;;;5.63;3.63;;;;;;;-2.84;64.27;99812.19;5052564;28;20139;-79
2022/03/08 07:25:34;;;;;;;7.75;3.20;;;;;;;-3.04;63.78;99777.84;5052598;28;20057;-78
2022/03/08 07:28:02;;;;;;;7.90;4.15;;;;;;;-2.30;64.08;99877.44;5054459;28;20057;-81
2022/03/08 07:30:50;;;;;;;8.18;4.40;;;;;;;-2.23;63.56;99853.06;5054428;28;20139;-78
2022/03/08 07:33:23;;;;;;;7.35;4.35;;;;;;;-2.15;62.88;99856.00;5056324;28;20057;-79
2022/03/08 07:35:51;;;;;;;8.82;4.05;;;;;;;-2.16;62.47;99880.72;5060726;28;20053;-77
2022/03/08 07:42:50;;;;;;;12.40;4.50;;;;;;;-2.35;63.07;99866.03;5033762;28;20070;-82
2022/03/08 07:45:46;;;;;;;5.47;3.28;;;;;;;-1.92;62.70;99877.72;5047493;28;20045;-79
2022/03/08 07:48:16;;;;;;;7.63;3.80;;;;;;;-1.84;62.19;99891.81;5053741;28;20067;-80
2022/03/08 07:50:43;;;;;;;6.03;3.65;;;;;;;-1.90;61.64;99871.00;5044951;28;20049;-77
2022/03/08 07:53:13;;;;;;;8.50;4.30;;;;;;;-1.80;61.98;99900.56;5053106;28;20107;-79
2022/03/08 07:55:40;;;;;;;7.38;3.97;;;;;;;-1.88;61.44;99921.50;5053651;28;20194;-78
2022/03/08 07:58:13;;;;;;;8.43;4.20;;;;;;;-2.10;61.96;99908.34;5052895;28;20468;-81
2022/03/08 08:00:47;;;;;;;8.32;4.28;;;;;;;-2.23;62.11;99894.00;5053296;28;20483;-81
2022/03/08 08:03:19;;;;;;;6.00;3.45;;;;;;;-2.41;62.12;99890.41;5053156;28;20056;-78
2022/03/08 08:05:47;;;;;;;6.60;3.33;;;;;;;-2.27;61.53;99913.41;5034745;28;20053;-79
2022/03/08 08:08:18;;;;;;;8.90;4.35;;;;;;;-2.25;62.38;99910.94;5032188;28;20049;-82
2022/03/08 08:10:46;;;;;;;6.00;3.58;;;;;;;-2.28;62.12;99893.75;5033425;28;20080;-79
2022/03/08 08:13:25;;;;;;;;;;;;;;;-2.19;61.88;99907.84;5033562;28;20080;-79
2022/03/08 08:16:21;;;;;;;6.82;4.07;;;;;;;-1.99;62.13;99901.25;5033482;28;19925;-81
2022/03/08 08:18:50;;;;;;;9.32;4.53;;;;;;;-1.80;61.12;99903.13;5064769;28;20144;-79
2022/03/08 08:21:17;;;;;;;9.13;3.50;;;;;;;-1.66;60.58;99923.56;5033361;28;20525;-81
2022/03/08 08:23:45;;;;;;;8.35;3.90;;;;;;;-1.97;60.72;99927.81;5037543;28;20406;-81
2022/03/08 08:26:14;;;;;;;5.80;3.72;;;;;;;-2.17;61.00;99901.13;5035154;28;20060;-79
2022/03/08 08:28:47;;;;;;;5.93;3.63;;;;;;;-2.22;61.10;99923.03;5033828;28;20053;-78
2022/03/08 08:31:14;;;;;;;7.55;3.75;;;;;;;-2.14;61.69;99922.66;5032336;28;20077;-79
2022/03/08 08:33:42;;;;;;;8.10;4.35;;;;;;;-2.17;61.26;99906.22;5033561;28;20041;-79
2022/03/08 08:36:09;;;;;;;4.22;3.25;;;;;;;-2.21;61.01;99943.59;5033132;28;20529;-79
2022/03/08 08:38:37;;;;;;;5.18;3.17;;;;;;;-2.41;61.76;99959.50;5033443;28;20056;-80
2022/03/08 08:41:04;;;;;;;5.82;3.83;;;;;;;-2.49;61.96;99944.59;5035382;28;20120;-80
2022/03/08 08:43:35;;;;;;;6.90;3.95;;;;;;;-2.50;61.75;99931.72;5017397;28;20057;-79
2022/03/08 08:46:03;;;;;;;5.97;3.83;;;;;;;-2.46;61.80;99936.22;5032060;28;20085;-79
2022/03/08 08:48:35;;;;;;;8.70;4.35;;;;;;;-2.55;61.98;99923.78;5035941;28;20140;-80
2022/03/08 08:51:03;;;;;;;9.20;4.32;;;;;;;-2.31;62.04;99942.19;5036959;28;20053;-81
2022/03/08 08:53:37;;;;;;;7.65;3.88;;;;;;;-2.29;61.35;99914.13;5035666;28;20107;-80
2022/03/08 08:56:04;;;;;;;8.60;4.00;;;;;;;-2.21;61.59;99919.69;5037286;28;20052;-80
2022/03/08 08:58:31;;;;;;;8.98;4.30;;;;;;;-1.95;61.60;99933.91;5036686;28;20108;-79
2022/03/08 09:00:59;;;;;;;5.55;3.25;;;;;;;-2.32;60.74;99868.78;5036957;28;20103;-80
2022/03/08 09:03:26;;;;;;;8.88;4.20;;;;;;;-1.95;61.07;99939.91;5036618;28;20049;-79
2022/03/08 09:05:54;;;;;;;7.40;3.70;;;;;;;-1.79;60.80;99918.53;5036331;28;20421;-78
2022/03/08 09:08:24;;;;;;;7.13;4.00;;;;;;;-1.86;60.45;99927.59;5036623;28;20111;-79
2022/03/08 09:10:52;;;;;;;5.85;3.08;;;;;;;-1.82;61.18;99959.38;5035938;28;20049;-81
2022/03/08 09:13:21;;;;;;;9.05;4.43;;;;;;;-2.01;61.82;99960.03;5036446;28;20057;-79
2022/03/08 09:15:50;;;;;;;7.35;4.32;;;;;;;-2.02;61.51;99955.75;5068412;28;20053;-79
2022/03/08 09:18:18;;;;;;;5.93;3.90;;;;;;;-1.91;61.10;99972.56;5036506;28;20080;-79
2022/03/08 09:20:45;;;;;;;6.15;3.90;;;;;;;-1.98;60.59;99975.59;5036516;28;20080;-79
2022/03/08 09:23:12;;;;;;;6.43;3.28;;;;;;;-2.11;60.58;99956.13;5034982;28;20045;-79
2022/03/08 09:25:40;;;;;;;7.78;4.22;;;;;;;-2.00;61.01;99979.75;5036354;28;20103;-81
2022/03/08 09:28:07;;;;;;;7.55;3.42;;;;;;;-2.13;60.46;99970.50;5036408;28;20053;-80
2022/03/08 09:30:35;;;;;;;6.55;3.53;;;;;;;-1.95;60.51;99968.06;5036117;28;20052;-79
2022/03/08 09:33:04;;;;;;;5.18;3.83;;;;;;;-1.63;60.01;99958.69;5036356;28;20428;-79
2022/03/08 09:35:31;;;;;;;6.60;3.53;;;;;;;-1.53;59.15;99930.16;5039844;28;20148;-82
2022/03/08 09:37:59;;;;;;;8.98;4.07;;;;;;;-1.43;59.25;99940.94;5042235;28;20077;-80
2022/03/08 09:40:26;;;;;;;5.40;3.22;;;;;;;-1.28;58.98;99959.66;5045176;28;20060;-80
2022/03/08 09:42:53;;;;;;;7.25;3.85;;;;;;;-1.35;59.34;99978.09;5056851;28;20554;-81
2022/03/08 09:45:20;;;;;;;6.00;3.47;;;;;;;-1.40;58.67;99974.38;5056033;28;20111;-80
2022/03/08 09:47:48;;;;;;;7.20;3.60;;;;;;;-1.34;58.72;99984.97;5055873;28;20053;-83
2022/03/08 09:50:16;;;;;;;6.45;3.40;;;;;;;-1.35;58.64;99978.97;5056119;28;20592;-82
2022/03/08 09:52:46;;;;;;;4.75;3.47;;;;;;;-1.29;58.22;99978.38;5055845;28;20099;-84
2022/03/08 09:55:17;;;;;;;5.47;3.53;;;;;;;-1.37;58.28;99987.38;5055976;28;20056;-83
2022/03/08 09:57:49;;;;;;;6.82;3.60;;;;;;;-1.41;58.21;99970.06;5055350;28;20413;-83
2022/03/08 10:00:16;;;;;;;6.03;3.53;;;;;;;-1.19;58.04;99967.81;5054520;28;20056;-83
2022/03/08 10:02:43;;;;;;;7.30;3.80;;;;;;;-1.18;57.93;99973.81;5055989;28;20112;-81
2022/03/08 10:05:10;;;;;;;9.00;3.83;;;;;;;-1.22;58.14;99997.56;5057469;28;20060;-84
2022/03/08 10:07:38;;;;;;;8.43;3.70;;;;;;;-1.51;58.02;99971.25;5055661;28;20417;-83
2022/03/08 10:10:05;;;;;;;8.63;3.65;;;;;;;-1.46;58.05;99998.91;5047122;28;20079;-83
2022/03/08 10:12:57;;;;;;;7.70;3.97;;;;;;;-1.66;58.48;100002.97;5036362;28;20104;-83
2022/03/08 10:15:24;;;;;;;5.10;3.25;;;;;;;-1.72;58.41;99999.16;5035821;28;20057;-81
2022/03/08 10:17:51;;;;;;;7.95;3.70;;;;;;;-1.78;58.28;99993.72;5034063;28;20081;-78
2022/03/08 10:20:30;;;;;;;4.47;3.10;;;;;;;-1.99;58.59;99978.94;5034149;28;20148;-80
2022/03/08 10:22:58;;;;;;;6.88;3.83;;;;;;;-1.80;59.04;99990.19;5035428;28;20080;-80
2022/03/08 10:25:28;;;;;;;7.78;3.90;;;;;;;-1.40;58.20;100007.69;5035281;28;20156;-80
2022/03/08 10:27:55;;;;;;;8.18;3.90;;;;;;;-1.40;58.15;99998.31;5036673;28;20144;-81
2022/03/08 10:30:44;;;;;;;7.57;3.83;;;;;;;-1.47;57.93;100015.06;5035472;28;20054;-80
2022/03/08 10:33:34;;;;;;;10.68;4.85;;;;;;;-1.70;57.78;99961.69;5037457;28;20053;-82
2022/03/08 10:36:01;;;;;;;7.57;3.97;;;;;;;-1.48;57.78;100007.31;5038954;28;20075;-80
2022/03/08 10:38:28;;;;;;;6.30;3.45;;;;;;;-1.87;58.15;99979.63;5040292;28;20057;-81
2022/03/08 10:40:55;;;;;;;9.48;3.80;;;;;;;-1.89;58.99;100014.50;5037805;28;20057;-80
2022/03/08 10:43:22;;;;;;;7.03;3.78;;;;;;;-1.89;58.84;100029.84;5034732;28;20149;-79
2022/03/08 10:45:50;;;;;;;6.90;3.75;;;;;;;-2.03;58.91;100024.75;5035117;28;20050;-79
2022/03/08 10:48:18;;;;;;;5.15;3.25;;;;;;;-2.12;59.59;100026.00;5033544;28;20510;-81
2022/03/08 10:50:49;;;;;;;7.05;3.83;;;;;;;-2.18;59.42;100029.91;5033320;28;20049;-77
2022/03/08 10:53:16;;;;;;;7.15;4.30;;;;;;;-2.20;59.25;100034.03;5035275;28;20536;-79
2022/03/08 10:55:49;;;;;;;7.57;4.35;;;;;;;-1.99;59.09;100032.69;5035775;28;20077;-79
2022/03/08 10:58:21;;;;;;;8.65;4.63;;;;;;;-2.39;58.83;99952.78;5037741;28;20053;-82
2022/03/08 11:00:54;;;;;;;8.68;4.28;;;;;;;-1.76;58.41;100022.88;5035515;28;20061;-79
2022/03/08 11:03:28;;;;;;;7.10;3.45;;;;;;;-1.80;57.79;100023.50;5035770;28;20054;-81
2022/03/08 11:10:15;;;;;;;8.85;4.13;;;;;;;-2.34;58.05;99998.31;4936043;28;20199;-81
2022/03/08 11:13:02;;;;;;;8.60;3.90;;;;;;;-2.81;58.20;99934.22;4962500;28;20058;-80
2022/03/08 11:15:31;;;;;;;7.00;3.33;;;;;;;-2.35;57.94;100029.81;4976922;28;20062;-80
2022/03/08 11:18:05;;;;;;;5.53;3.65;;;;;;;-2.00;58.04;100056.56;4986908;28;20054;-79
2022/03/08 11:20:39;;;;;;;4.90;3.00;;;;;;;-2.05;57.64;100027.22;4978759;28;20069;-83
2022/03/08 11:23:07;;;;;;;5.95;3.38;;;;;;;-1.97;57.36;100043.91;4967888;29;20051;-80
2022/03/08 11:25:42;;;;;;;8.57;3.53;;;;;;;-1.86;57.39;100041.94;4968158;28;20182;-81
2022/03/08 11:28:20;;;;;;;6.15;3.33;;;;;;;-2.03;57.70;100041.00;4974225;28;20082;-82
2022/03/08 11:30:51;;;;;;;5.78;3.03;;;;;;;-2.06;57.64;100072.44;4972895;28;20050;-80
2022/03/08 11:33:40;;;;;;;6.38;3.50;;;;;;;-2.10;57.98;100051.69;4974574;28;20082;-80
2022/03/08 11:36:32;;;;;;;5.70;3.60;;;;;;;-1.96;57.85;100055.91;4975473;28;20054;-83
2022/03/08 11:39:19;;;;;;;8.70;4.82;;;;;;;-1.81;57.61;100035.38;4975436;28;20061;-82
2022/03/08 11:41:58;;;;;;;8.75;4.32;;;;;;;-1.55;57.10;100024.03;4975480;28;20058;-80
2022/03/08 11:44:27;;;;;;;9.50;4.47;;;;;;;-1.10;56.06;100031.50;4960329;28;20550;-80
2022/03/08 11:47:14;;;;;;;8.63;3.85;;;;;;;-1.15;55.75;100013.31;5025571;28;20052;-82
2022/03/08 11:49:54;;;;;;;9.48;4.03;;;;;;;-0.84;55.31;100050.81;5055837;28;20053;-79
2022/03/08 11:52:55;;;;;;;7.80;3.88;;;;;;;-1.02;55.19;100050.75;5038542;28;20500;-82